createdAt,value
2023-02-13T00:00:13.409Z,0.86
2023-02-13T00:02:39.941Z,0.91
2023-02-13T00:05:07.195Z,0.92
2023-02-13T00:07:33.654Z,0.94
2023-02-13T00:10:00.137Z,1.06
2023-02-13T00:12:26.658Z,1.11
2023-02-13T00:14:53.974Z,0.74
2023-02-13T00:17:20.471Z,0.94
2023-02-13T00:19:46.896Z,0.83
2023-02-13T00:22:13.398Z,0.92
2023-02-13T00:24:39.969Z,0.87
2023-02-13T00:27:06.395Z,0.98
2023-02-13T00:29:33.629Z,0.71
2023-02-13T00:32:01.352Z,0.78
2023-02-13T00:34:28.247Z,0.97
2023-02-13T00:36:54.844Z,1.04
2023-02-13T00:39:21.390Z,0.83
2023-02-13T00:41:48.317Z,0.58
2023-02-13T00:44:14.975Z,0.93
2023-02-13T00:46:41.427Z,0.83
2023-02-13T00:49:07.883Z,1.11
2023-02-13T00:51:34.591Z,1.16
2023-02-13T00:54:01.286Z,0.86
2023-02-13T00:56:28.038Z,0.85
2023-02-13T00:58:54.669Z,0.91
2023-02-13T01:01:21.709Z,0.89
2023-02-13T01:03:48.255Z,0.95
2023-02-13T01:06:14.757Z,0.62
2023-02-13T01:08:43.854Z,0.61
2023-02-13T01:11:10.323Z,0.87
2023-02-13T01:13:37.151Z,0.79
2023-02-13T01:16:03.784Z,0.47
2023-02-13T01:18:30.355Z,0.47
2023-02-13T01:21:06.425Z,0.43
2023-02-13T01:23:38.050Z,0.65
2023-02-13T01:26:06.304Z,0.81
2023-02-13T01:28:33.471Z,0.68
2023-02-13T01:31:00.541Z,0.72
2023-02-13T01:33:28.764Z,0.86
2023-02-13T01:35:55.274Z,0.95
2023-02-13T01:38:21.902Z,0.45
2023-02-13T01:40:53.909Z,0.81
2023-02-13T01:43:23.363Z,0.21
2023-02-13T01:45:55.044Z,0.80
2023-02-13T01:48:24.796Z,0.71
2023-02-13T01:50:58.320Z,0.82
2023-02-13T01:53:33.437Z,0.59
2023-02-13T01:56:05.365Z,0.72
2023-02-13T01:58:35.964Z,0.65
2023-02-13T02:01:04.489Z,0.72
2023-02-13T02:03:36.952Z,0.25
2023-02-13T02:06:13.218Z,0.69
2023-02-13T02:08:39.858Z,0.78
2023-02-13T02:11:24.088Z,0.74
2023-02-13T02:13:51.173Z,0.57
2023-02-13T02:16:32.132Z,0.46
2023-02-13T02:19:03.403Z,0.86
2023-02-13T02:21:59.522Z,0.85
2023-02-13T02:24:58.733Z,0.71
2023-02-13T02:27:44.448Z,0.78
2023-02-13T02:30:30.821Z,0.84
2023-02-13T02:33:07.318Z,0.72
2023-02-13T02:35:49.036Z,0.84
2023-02-13T02:38:39.161Z,0.75
2023-02-13T02:41:45.597Z,0.57
2023-02-13T02:44:38.720Z,0.91
2023-02-13T02:47:36.964Z,0.91
2023-02-13T02:50:17.376Z,0.89
2023-02-13T02:52:43.754Z,0.85
2023-02-13T02:55:31.551Z,0.47
2023-02-13T02:58:25.734Z,0.74
2023-02-13T03:01:16.917Z,0.63
2023-02-13T03:04:03.068Z,0.53
2023-02-13T03:06:40.212Z,0.51
2023-02-13T03:09:30.811Z,0.66
2023-02-13T03:12:16.819Z,0.47
2023-02-13T03:14:44.391Z,0.87
2023-02-13T03:17:35.677Z,0.63
2023-02-13T03:20:30.412Z,0.84
2023-02-13T03:23:20.606Z,1.05
2023-02-13T03:26:33.220Z,0.96
2023-02-13T03:29:39.538Z,0.74
2023-02-13T03:32:18.459Z,0.82
2023-02-13T03:35:13.168Z,0.67
2023-02-13T03:37:56.447Z,0.64
2023-02-13T03:41:00.723Z,0.65
2023-02-13T03:43:32.891Z,0.33
2023-02-13T03:46:02.435Z,0.52
2023-02-13T03:48:56.872Z,0.72
2023-02-13T03:51:37.333Z,0.59
2023-02-13T03:54:12.468Z,0.51
2023-02-13T03:57:00.553Z,0.77
2023-02-13T03:59:33.758Z,0.48
2023-02-13T04:02:24.130Z,0.90
2023-02-13T04:04:58.990Z,0.66
2023-02-13T04:07:32.176Z,0.57
2023-02-13T04:10:10.583Z,0.37
2023-02-13T04:12:51.115Z,0.55
2023-02-13T04:15:34.476Z,0.32
2023-02-13T04:18:22.259Z,0.52
2023-02-13T04:20:49.036Z,0.30
2023-02-13T04:23:15.852Z,0.40
2023-02-13T04:25:48.656Z,-0.13
2023-02-13T04:28:15.243Z,-0.09
2023-02-13T04:30:42.239Z,0.46
2023-02-13T04:33:08.964Z,0.16
2023-02-13T04:35:35.542Z,0.44
2023-02-13T04:38:02.329Z,0.51
2023-02-13T04:40:29.035Z,0.31
2023-02-13T04:42:55.764Z,0.45
2023-02-13T04:45:22.388Z,0.51
2023-02-13T04:47:53.904Z,0.59
2023-02-13T04:50:23.828Z,0.55
2023-02-13T04:52:55.588Z,0.69
2023-02-13T04:55:47.516Z,0.62
2023-02-13T04:58:13.946Z,0.50
2023-02-13T05:00:40.470Z,0.55
2023-02-13T05:03:09.399Z,0.83
2023-02-13T05:05:36.234Z,0.86
2023-02-13T05:08:02.762Z,0.69
2023-02-13T05:10:29.610Z,0.59
2023-02-13T05:12:56.346Z,0.69
2023-02-13T05:15:23.730Z,0.87
2023-02-13T05:17:50.608Z,0.93
2023-02-13T05:20:18.503Z,0.79
2023-02-13T05:23:05.218Z,0.97
2023-02-13T05:25:32.417Z,0.98
2023-02-13T05:27:58.921Z,0.95
2023-02-13T05:30:25.456Z,0.79
2023-02-13T05:32:52.288Z,0.78
2023-02-13T05:35:19.388Z,0.72
2023-02-13T05:37:45.843Z,0.69
2023-02-13T05:40:13.442Z,0.67
2023-02-13T05:42:41.271Z,0.62
2023-02-13T05:45:08.830Z,0.60
2023-02-13T05:47:35.956Z,0.59
2023-02-13T05:50:02.440Z,0.51
2023-02-13T05:52:28.906Z,0.54
2023-02-13T05:54:55.325Z,0.65
2023-02-13T05:57:21.847Z,0.76
2023-02-13T05:59:48.314Z,0.81
2023-02-13T06:02:15.191Z,0.65
2023-02-13T06:04:42.162Z,0.68
2023-02-13T06:07:08.586Z,0.74
2023-02-13T06:09:35.080Z,0.61
2023-02-13T06:12:01.523Z,0.73
2023-02-13T06:14:27.983Z,0.72
2023-02-13T06:16:54.474Z,0.82
2023-02-13T06:19:20.966Z,0.69
2023-02-13T06:21:47.393Z,0.83
2023-02-13T06:24:13.839Z,0.80
2023-02-13T06:26:40.284Z,0.82
2023-02-13T06:29:06.880Z,0.79
2023-02-13T06:31:33.480Z,0.77
2023-02-13T06:33:59.988Z,0.81
2023-02-13T06:36:26.550Z,0.85
2023-02-13T06:38:52.983Z,0.74
2023-02-13T06:41:19.578Z,0.74
2023-02-13T06:43:46.009Z,0.75
2023-02-13T06:46:12.464Z,0.70
2023-02-13T06:48:39.026Z,0.65
2023-02-13T06:51:05.707Z,0.60
2023-02-13T06:53:32.159Z,0.66
2023-02-13T06:55:58.594Z,0.78
2023-02-13T06:58:26.248Z,0.83
2023-02-13T07:00:53.211Z,0.74
2023-02-13T07:03:19.777Z,0.73
2023-02-13T07:05:46.450Z,0.67
2023-02-13T07:08:13.541Z,0.66
2023-02-13T07:10:41.434Z,0.79
2023-02-13T07:13:08.693Z,0.78
2023-02-13T07:15:36.088Z,0.73
2023-02-13T07:18:03.761Z,0.62
2023-02-13T07:20:30.428Z,0.71
2023-02-13T07:23:01.329Z,0.82
2023-02-13T07:25:28.618Z,0.68
2023-02-13T07:27:55.179Z,0.76
2023-02-13T07:30:21.774Z,0.89
2023-02-13T07:32:48.319Z,0.78
2023-02-13T07:35:14.919Z,0.80
2023-02-13T07:37:41.780Z,0.70
2023-02-13T07:40:08.959Z,0.71
2023-02-13T07:42:35.512Z,0.74
2023-02-13T07:45:05.487Z,0.82
2023-02-13T07:47:33.725Z,0.74
2023-02-13T07:50:00.199Z,0.59
2023-02-13T07:52:26.739Z,0.63
2023-02-13T07:54:53.169Z,0.46
2023-02-13T07:57:19.665Z,0.53
2023-02-13T07:59:46.113Z,0.56
2023-02-13T08:02:14.242Z,0.63
2023-02-13T08:04:41.598Z,0.55
2023-02-13T08:07:08.075Z,0.59
2023-02-13T08:09:53.390Z,0.53
2023-02-13T08:12:19.889Z,0.68
2023-02-13T08:14:46.325Z,0.64
2023-02-13T08:17:13.260Z,0.60
2023-02-13T08:19:39.862Z,0.66
2023-02-13T08:22:06.436Z,0.67
2023-02-13T08:24:33.611Z,0.63
2023-02-13T08:27:00.056Z,0.76
2023-02-13T08:29:26.508Z,0.72
2023-02-13T08:31:52.996Z,0.80
2023-02-13T08:34:19.574Z,0.83
2023-02-13T08:36:46.048Z,0.80
2023-02-13T08:39:12.641Z,0.82
2023-02-13T08:41:39.234Z,0.82
2023-02-13T08:44:05.680Z,0.80
2023-02-13T08:46:32.293Z,0.87
2023-02-13T08:48:59.039Z,0.97
2023-02-13T08:51:25.497Z,1.05
2023-02-13T08:53:51.956Z,0.94
2023-02-13T08:56:18.498Z,0.94
2023-02-13T08:58:48.782Z,0.96
2023-02-13T09:01:16.043Z,0.99
2023-02-13T09:03:42.580Z,0.92
2023-02-13T09:06:09.038Z,1.03
2023-02-13T09:08:36.222Z,1.09
2023-02-13T09:11:05.609Z,1.04
2023-02-13T09:13:34.364Z,1.05
2023-02-13T09:16:02.460Z,1.08
2023-02-13T09:18:29.179Z,1.10
2023-02-13T09:21:05.028Z,1.11
2023-02-13T09:23:34.162Z,1.24
2023-02-13T09:26:05.865Z,1.23
2023-02-13T09:28:34.033Z,1.37
2023-02-13T09:31:08.601Z,1.24
2023-02-13T09:33:36.014Z,1.29
2023-02-13T09:36:14.873Z,1.38
2023-02-13T09:38:44.031Z,1.29
2023-02-13T09:41:21.694Z,1.40
2023-02-13T09:44:06.285Z,1.37
2023-02-13T09:46:38.519Z,1.48
2023-02-13T09:49:14.305Z,1.47
2023-02-13T09:51:43.995Z,1.55
2023-02-13T09:54:16.369Z,1.51
2023-02-13T09:56:50.063Z,1.49
2023-02-13T09:59:48.734Z,1.58
2023-02-13T10:02:45.784Z,1.56
2023-02-13T10:05:21.524Z,1.56
2023-02-13T10:08:05.695Z,1.56
2023-02-13T10:10:52.518Z,1.50
2023-02-13T10:14:00.052Z,1.54
2023-02-13T10:16:45.427Z,1.78
2023-02-13T10:19:46.902Z,1.75
2023-02-13T10:22:20.529Z,1.61
2023-02-13T10:24:55.966Z,1.65
2023-02-13T10:27:25.596Z,1.82
2023-02-13T10:30:06.825Z,1.76
2023-02-13T10:32:49.547Z,1.82
2023-02-13T10:35:29.997Z,1.72
2023-02-13T10:37:59.514Z,2.01
2023-02-13T10:40:37.654Z,1.94
2023-02-13T10:43:16.270Z,1.97
2023-02-13T10:46:01.753Z,2.00
2023-02-13T10:48:48.491Z,1.96
2023-02-13T10:51:27.275Z,1.90
2023-02-13T10:54:16.380Z,1.84
2023-02-13T10:56:58.146Z,1.89
2023-02-13T10:59:30.803Z,1.91
2023-02-13T11:02:07.146Z,2.01
2023-02-13T11:04:33.613Z,2.01
2023-02-13T11:07:05.937Z,2.04
2023-02-13T11:09:39.886Z,2.01
2023-02-13T11:12:26.688Z,2.12
2023-02-13T11:15:01.706Z,2.08
2023-02-13T11:17:35.829Z,2.09
2023-02-13T11:20:27.282Z,1.95
2023-02-13T11:22:55.103Z,2.08
2023-02-13T11:25:25.456Z,2.21
2023-02-13T11:28:07.778Z,2.17
2023-02-13T11:30:38.583Z,2.08
2023-02-13T11:33:20.902Z,2.24
2023-02-13T11:35:48.054Z,2.42
2023-02-13T11:38:20.517Z,2.25
2023-02-13T11:41:14.241Z,1.96
2023-02-13T11:43:48.406Z,2.13
2023-02-13T11:46:21.887Z,1.97
2023-02-13T11:49:13.449Z,2.08
2023-02-13T11:51:44.230Z,2.07
2023-02-13T11:54:28.870Z,2.14
2023-02-13T11:57:07.347Z,2.05
2023-02-13T11:59:40.969Z,1.97
2023-02-13T12:02:20.936Z,1.95
2023-02-13T12:04:50.508Z,2.40
2023-02-13T12:07:24.785Z,2.26
2023-02-13T12:10:02.851Z,2.42
2023-02-13T12:12:35.650Z,2.21
2023-02-13T12:15:19.124Z,2.18
2023-02-13T12:17:50.475Z,2.22
2023-02-13T12:20:17.994Z,2.22
2023-02-13T12:22:59.576Z,2.40
2023-02-13T12:25:48.339Z,2.38
2023-02-13T12:28:26.973Z,2.23
2023-02-13T12:31:05.506Z,2.09
2023-02-13T12:34:08.997Z,2.14
2023-02-13T12:36:44.510Z,2.15
2023-02-13T12:39:33.195Z,2.13
2023-02-13T12:42:24.246Z,2.22
2023-02-13T12:45:25.472Z,2.22
2023-02-13T12:48:26.859Z,2.14
2023-02-13T12:51:18.234Z,2.28
2023-02-13T12:54:12.603Z,2.38
2023-02-13T12:56:54.324Z,2.27
2023-02-13T12:59:42.137Z,2.37
2023-02-13T13:02:44.288Z,2.52
2023-02-13T13:05:40.228Z,2.41
2023-02-13T13:08:31.952Z,2.28
2023-02-13T13:11:29.053Z,2.27
2023-02-13T13:14:09.322Z,2.23
2023-02-13T13:16:52.125Z,2.24
2023-02-13T13:19:38.273Z,2.30
2023-02-13T13:22:17.229Z,2.33
2023-02-13T13:24:55.712Z,2.25
2023-02-13T13:27:27.259Z,2.30
2023-02-13T13:30:05.954Z,2.20
2023-02-13T13:32:33.160Z,2.07
2023-02-13T13:34:59.914Z,2.08
2023-02-13T13:37:39.058Z,2.18
2023-02-13T13:40:37.111Z,2.01
2023-02-13T13:43:31.496Z,2.01
2023-02-13T13:46:30.184Z,1.93
2023-02-13T13:49:00.204Z,1.80
2023-02-13T13:51:27.126Z,1.79
2023-02-13T13:54:05.708Z,1.92
2023-02-13T13:56:54.015Z,1.92
2023-02-13T13:59:51.414Z,1.73
2023-02-13T14:02:17.865Z,1.85
2023-02-13T14:05:18.628Z,1.86
2023-02-13T14:07:47.524Z,1.78
2023-02-13T14:10:34.205Z,1.73
2023-02-13T14:13:03.005Z,1.79
2023-02-13T14:15:38.664Z,1.71
2023-02-13T14:18:21.550Z,2.15
2023-02-13T14:20:50.915Z,2.20
2023-02-13T14:23:27.188Z,1.88
2023-02-13T14:26:19.715Z,1.86
2023-02-13T14:28:48.888Z,2.04
2023-02-13T14:31:31.694Z,2.00
2023-02-13T14:34:15.024Z,1.93
2023-02-13T14:36:45.561Z,1.81
2023-02-13T14:39:35.442Z,1.67
2023-02-13T14:42:04.256Z,1.84
2023-02-13T14:44:39.781Z,1.54
2023-02-13T14:47:22.154Z,1.65
2023-02-13T14:49:50.451Z,1.50
2023-02-13T14:52:21.982Z,1.90
2023-02-13T14:54:55.802Z,1.65
2023-02-13T14:57:37.868Z,1.70
2023-02-13T15:00:20.802Z,1.70
2023-02-13T15:02:53.995Z,1.68
2023-02-13T15:05:21.421Z,1.70
2023-02-13T15:07:53.733Z,1.61
2023-02-13T15:10:49.947Z,1.74
2023-02-13T15:13:20.636Z,1.72
2023-02-13T15:15:56.503Z,1.80
2023-02-13T15:18:30.262Z,1.64
2023-02-13T15:21:00.159Z,1.63
2023-02-13T15:23:32.715Z,1.57
2023-02-13T15:26:05.596Z,1.60
2023-02-13T15:28:33.206Z,1.45
2023-02-13T15:31:20.035Z,1.31
2023-02-13T15:33:48.827Z,1.20
2023-02-13T15:36:18.858Z,1.34
2023-02-13T15:38:45.406Z,1.27
2023-02-13T15:41:22.694Z,1.26
2023-02-13T15:43:53.206Z,1.36
2023-02-13T15:46:33.343Z,1.47
2023-02-13T15:49:24.190Z,1.48
2023-02-13T15:51:51.162Z,1.37
2023-02-13T15:54:33.004Z,1.50
2023-02-13T15:57:03.996Z,1.72
2023-02-13T15:59:39.170Z,1.68
2023-02-13T16:02:13.952Z,1.61
2023-02-13T16:04:41.515Z,1.43
2023-02-13T16:07:12.312Z,1.34
2023-02-13T16:09:39.269Z,1.32
2023-02-13T16:12:17.292Z,1.34
2023-02-13T16:15:02.279Z,1.28
2023-02-13T16:17:34.871Z,1.24
2023-02-13T16:20:18.874Z,1.49
2023-02-13T16:22:48.977Z,1.43
2023-02-13T16:25:32.953Z,1.39
2023-02-13T16:28:05.784Z,1.38
2023-02-13T16:30:43.500Z,1.47
2023-02-13T16:33:22.797Z,1.40
2023-02-13T16:35:56.683Z,1.39
2023-02-13T16:38:38.520Z,1.27
2023-02-13T16:41:17.144Z,1.39
2023-02-13T16:44:05.639Z,1.18
2023-02-13T16:46:39.857Z,1.25
2023-02-13T16:49:09.592Z,1.17
2023-02-13T16:51:54.624Z,1.21
2023-02-13T16:54:27.398Z,1.25
2023-02-13T16:56:55.763Z,1.18
2023-02-13T16:59:40.921Z,1.21
2023-02-13T17:02:21.156Z,1.24
2023-02-13T17:04:58.392Z,1.19
2023-02-13T17:07:35.215Z,1.30
2023-02-13T17:10:06.483Z,1.21
2023-02-13T17:12:37.566Z,1.22
2023-02-13T17:15:05.761Z,1.11
2023-02-13T17:17:32.815Z,1.30
2023-02-13T17:19:59.469Z,1.18
2023-02-13T17:22:34.231Z,1.23
2023-02-13T17:25:02.242Z,1.28
2023-02-13T17:27:28.702Z,1.26
2023-02-13T17:29:55.247Z,1.31
2023-02-13T17:32:25.502Z,1.21
2023-02-13T17:34:52.351Z,1.23
2023-02-13T17:37:27.106Z,1.51
2023-02-13T17:39:54.428Z,1.49
2023-02-13T17:42:26.774Z,1.44
2023-02-13T17:44:55.253Z,1.77
2023-02-13T17:47:22.826Z,1.62
2023-02-13T17:49:49.932Z,1.70
2023-02-13T17:52:22.570Z,1.42
2023-02-13T17:54:49.111Z,1.31
2023-02-13T17:57:17.792Z,1.02
2023-02-13T17:59:44.787Z,1.34
2023-02-13T18:02:17.926Z,1.34
2023-02-13T18:04:44.894Z,1.26
2023-02-13T18:07:13.556Z,1.25
2023-02-13T18:09:40.233Z,1.21
2023-02-13T18:12:08.378Z,1.26
2023-02-13T18:14:34.898Z,1.11
2023-02-13T18:17:01.409Z,1.13
2023-02-13T18:19:28.125Z,1.16
2023-02-13T18:21:54.594Z,1.21
2023-02-13T18:24:21.088Z,1.25
2023-02-13T18:26:47.666Z,1.13
2023-02-13T18:29:14.146Z,1.17
2023-02-13T18:31:40.705Z,1.44
2023-02-13T18:34:07.315Z,1.31
2023-02-13T18:36:33.858Z,1.24
2023-02-13T18:39:00.357Z,1.31
2023-02-13T18:41:26.811Z,1.18
2023-02-13T18:43:56.792Z,1.18
2023-02-13T18:46:23.786Z,1.13
2023-02-13T18:48:50.246Z,1.14
2023-02-13T18:51:16.705Z,1.12
2023-02-13T18:53:43.135Z,1.16
2023-02-13T18:56:11.533Z,1.36
2023-02-13T18:58:38.150Z,1.60
2023-02-13T19:01:08.707Z,1.50
2023-02-13T19:03:37.058Z,1.32
2023-02-13T19:06:08.187Z,1.18
2023-02-13T19:08:35.922Z,1.21
2023-02-13T19:11:04.350Z,1.32
2023-02-13T19:13:31.928Z,1.33
2023-02-13T19:16:06.633Z,1.52
2023-02-13T19:18:36.529Z,1.30
2023-02-13T19:21:03.788Z,1.23
2023-02-13T19:23:30.711Z,1.17
2023-02-13T19:25:57.587Z,1.15
2023-02-13T19:28:24.911Z,1.22
2023-02-13T19:30:51.503Z,1.06
2023-02-13T19:33:17.972Z,1.25
2023-02-13T19:35:44.408Z,1.22
2023-02-13T19:38:11.043Z,1.06
2023-02-13T19:40:37.736Z,0.97
2023-02-13T19:43:04.295Z,1.13
2023-02-13T19:45:30.773Z,0.93
2023-02-13T19:47:57.266Z,0.76
2023-02-13T19:50:23.710Z,0.71
2023-02-13T19:52:51.863Z,0.74
2023-02-13T19:55:19.992Z,0.65
2023-02-13T19:57:46.418Z,0.98
2023-02-13T20:00:13.427Z,0.98
2023-02-13T20:02:40.217Z,0.92
2023-02-13T20:05:08.469Z,0.69
2023-02-13T20:07:35.073Z,0.49
2023-02-13T20:10:01.511Z,0.45
2023-02-13T20:12:27.937Z,0.38
2023-02-13T20:14:55.568Z,0.35
2023-02-13T20:17:22.824Z,0.33
2023-02-13T20:19:51.431Z,0.31
2023-02-13T20:22:18.816Z,0.23
2023-02-13T20:24:47.089Z,0.18
2023-02-13T20:27:14.519Z,0.18
2023-02-13T20:29:41.886Z,0.07
2023-02-13T20:32:08.661Z,0.04
2023-02-13T20:34:44.402Z,0.02
2023-02-13T20:37:22.226Z,0.08
2023-02-13T20:39:49.284Z,0.06
2023-02-13T20:42:16.660Z,0.48
2023-02-13T20:44:44.481Z,0.24
2023-02-13T20:47:11.367Z,0.10
2023-02-13T20:49:38.132Z,0.04
2023-02-13T20:52:05.680Z,0.06
2023-02-13T20:54:32.728Z,0.06
2023-02-13T20:56:59.723Z,0.08
2023-02-13T20:59:26.363Z,0.05
2023-02-13T21:01:52.825Z,-0.05
2023-02-13T21:04:20.541Z,-0.01
2023-02-13T21:06:48.213Z,0.02
2023-02-13T21:09:15.749Z,-0.08
2023-02-13T21:11:43.919Z,0.05
2023-02-13T21:14:12.210Z,0.01
2023-02-13T21:16:40.352Z,-0.23
2023-02-13T21:19:09.855Z,-0.02
2023-02-13T21:21:37.340Z,-0.21
2023-02-13T21:24:11.072Z,-0.26
2023-02-13T21:26:37.697Z,-0.22
2023-02-13T21:29:06.041Z,-0.27
2023-02-13T21:31:38.568Z,-0.22
2023-02-13T21:34:08.543Z,-0.16
2023-02-13T21:36:37.944Z,-0.09
2023-02-13T21:39:06.285Z,-0.23
2023-02-13T21:41:33.836Z,-0.30
2023-02-13T21:44:00.281Z,-0.12
2023-02-13T21:46:29.797Z,-0.21
2023-02-13T21:48:58.339Z,-0.34
2023-02-13T21:51:26.448Z,-0.28
2023-02-13T21:53:53.962Z,-0.20
2023-02-13T21:56:26.658Z,-0.28
2023-02-13T21:58:54.419Z,-0.39
2023-02-13T22:01:26.979Z,-0.39
2023-02-13T22:04:00.792Z,-0.24
2023-02-13T22:06:29.614Z,-0.24
2023-02-13T22:08:58.281Z,-0.41
2023-02-13T22:11:25.304Z,-0.36
2023-02-13T22:13:56.558Z,-0.30
2023-02-13T22:16:23.858Z,-0.26
2023-02-13T22:18:50.643Z,-0.41
2023-02-13T22:21:19.705Z,-0.50
2023-02-13T22:23:47.522Z,-0.37
2023-02-13T22:26:28.719Z,-0.14
2023-02-13T22:28:58.267Z,0.01
2023-02-13T22:31:25.948Z,-0.24
2023-02-13T22:34:02.898Z,-0.24
2023-02-13T22:36:31.817Z,-0.09
2023-02-13T22:38:58.302Z,0.04
2023-02-13T22:41:26.715Z,-0.14
2023-02-13T22:43:53.440Z,-0.11
2023-02-13T22:46:29.172Z,-0.07
2023-02-13T22:48:56.600Z,-0.20
2023-02-13T22:51:28.509Z,-0.11
2023-02-13T22:53:59.282Z,-0.20
2023-02-13T22:56:27.777Z,-0.23
2023-02-13T22:58:54.302Z,-0.10
2023-02-13T23:01:22.495Z,-0.08
2023-02-13T23:03:49.725Z,-0.27
2023-02-13T23:06:17.141Z,-0.31
2023-02-13T23:08:43.999Z,-0.27
2023-02-13T23:11:35.187Z,-0.22
2023-02-13T23:14:01.786Z,-0.42
2023-02-13T23:16:28.742Z,-0.46
2023-02-13T23:18:56.933Z,-0.58
2023-02-13T23:21:24.579Z,-0.69
2023-02-13T23:23:51.489Z,-0.67
2023-02-13T23:26:18.734Z,-0.69
2023-02-13T23:28:45.268Z,-0.62
2023-02-13T23:31:11.853Z,-0.72
2023-02-13T23:33:38.392Z,-0.63
2023-02-13T23:36:05.256Z,-0.67
2023-02-13T23:38:31.752Z,-0.37
2023-02-13T23:41:06.191Z,-0.55
2023-02-13T23:43:32.946Z,-0.62
2023-02-13T23:45:59.413Z,-0.71
2023-02-13T23:48:25.910Z,-0.64
2023-02-13T23:50:53.156Z,-0.71
2023-02-13T23:53:19.596Z,-0.80
2023-02-13T23:55:47.087Z,-0.58
2023-02-13T23:58:13.511Z,-0.61
